Time;durP1;ratioP1;P1;durP2;ratioP2;P2;SDS_P1;SDS_P2;PMS_P1;PMS_P2;Temp;Humidity;BMP_temperature;BMP_pressure;BME280_temperature;BME280_humidity;BME280_pressure;Samples;Min_cycle;Max_cycle;Signal;HPM_P1;HPM_P2
2023/05/03 00:00:01;;;;;;;6.50;3.30;;;9.30;99.90;;;;;;5031362;28;20204;-74
2023/05/03 00:02:27;;;;;;;3.30;2.80;;;9.20;99.90;;;;;;5032414;28;20221;-74
2023/05/03 00:04:53;;;;;;;5.60;3.37;;;9.20;99.90;;;;;;5014311;28;20569;-74
2023/05/03 00:07:19;;;;;;;12.33;2.40;;;9.10;99.90;;;;;;5031075;28;20177;-74
2023/05/03 00:09:48;;;;;;;4.93;2.75;;;9.10;99.90;;;;;;5031705;28;20584;-74
2023/05/03 00:12:14;;;;;;;3.85;2.30;;;9.10;99.90;;;;;;5030824;28;20202;-74
2023/05/03 00:14:39;;;;;;;7.10;4.27;;;9.00;99.90;;;;;;5030440;28;20181;-74
2023/05/03 00:17:05;;;;;;;7.87;2.97;;;9.00;99.90;;;;;;5030893;28;20646;-74
2023/05/03 00:19:32;;;;;;;4.97;3.43;;;9.00;99.90;;;;;;5032132;28;20211;-74
2023/05/03 00:21:58;;;;;;;5.82;3.10;;;9.00;99.90;;;;;;5031368;28;20205;-74
2023/05/03 00:24:24;;;;;;;5.45;3.15;;;9.00;99.90;;;;;;5030823;28;20559;-74
2023/05/03 00:26:50;;;;;;;6.13;3.10;;;9.00;99.90;;;;;;5030912;28;20177;-74
2023/05/03 00:29:15;;;;;;;5.00;2.60;;;8.90;99.90;;;;;;5030759;28;20174;-74
2023/05/03 00:31:44;;;;;;;6.60;3.30;;;8.90;99.90;;;;;;5029698;28;20638;-74
2023/05/03 00:34:10;;;;;;;4.35;2.95;;;8.90;99.90;;;;;;5030406;28;20174;-74
2023/05/03 00:36:35;;;;;;;3.93;2.90;;;8.90;99.90;;;;;;5031010;28;20235;-74
2023/05/03 00:39:01;;;;;;;3.60;2.63;;;8.80;99.90;;;;;;5030562;28;20647;-74
2023/05/03 00:41:27;;;;;;;3.90;3.23;;;8.80;99.90;;;;;;5031539;28;20205;-74
2023/05/03 00:43:52;;;;;;;5.60;4.23;;;8.80;99.90;;;;;;5030007;28;20189;-74
2023/05/03 00:46:18;;;;;;;5.43;2.73;;;8.80;99.90;;;;;;5031364;28;20626;-74
2023/05/03 00:48:46;;;;;;;5.40;3.63;;;8.80;99.90;;;;;;5031146;28;20177;-74
2023/05/03 00:51:14;;;;;;;4.70;2.75;;;8.70;99.90;;;;;;5013513;28;20517;-74
2023/05/03 00:53:41;;;;;;;8.15;3.25;;;8.70;99.90;;;;;;5030882;28;20611;-74
2023/05/03 00:56:08;;;;;;;5.75;3.05;;;8.70;99.90;;;;;;5044997;28;20165;-74
2023/05/03 00:58:38;;;;;;;3.10;2.35;;;8.60;99.90;;;;;;5051123;28;20164;-74
2023/05/03 01:01:06;;;;;;;7.07;3.05;;;8.60;99.90;;;;;;5049391;28;20201;-74
2023/05/03 01:03:32;;;;;;;5.95;3.17;;;8.60;99.90;;;;;;5029789;28;20277;-74
2023/05/03 01:06:10;;;;;;;5.18;3.15;;;8.60;99.90;;;;;;5030992;28;20224;-74
2023/05/03 01:09:01;;;;;;;5.50;3.80;;;8.50;99.90;;;;;;5013856;28;20539;-74
2023/05/03 01:11:40;;;;;;;7.95;3.95;;;8.50;99.90;;;;;;5028883;28;20209;-74
2023/05/03 01:14:39;;;;;;;4.68;2.58;;;8.50;99.90;;;;;;5026097;28;20184;-74
2023/05/03 01:17:11;;;;;;;4.45;2.95;;;8.40;99.90;;;;;;5003240;28;20179;-74
2023/05/03 01:19:43;;;;;;;4.05;2.72;;;8.40;99.90;;;;;;5039307;23;20212;-74
2023/05/03 01:22:15;;;;;;;5.47;2.92;;;8.40;99.90;;;;;;5038391;28;20218;-75
2023/05/03 01:24:44;;;;;;;4.60;3.22;;;8.30;99.90;;;;;;5042537;28;20252;-75
2023/05/03 01:27:10;;;;;;;7.93;2.97;;;8.30;99.90;;;;;;5048846;28;20192;-75
2023/05/03 01:29:36;;;;;;;4.80;3.33;;;8.30;99.90;;;;;;5046055;28;20700;-76
2023/05/03 01:32:11;;;;;;;4.10;2.80;;;8.30;99.90;;;;;;5029551;28;20588;-76
2023/05/03 01:34:49;;;;;;;3.28;2.42;;;8.20;99.90;;;;;;5030946;28;20173;-76
2023/05/03 01:37:16;;;;;;;6.03;3.60;;;8.20;99.90;;;;;;5029650;28;20208;-76
2023/05/03 01:40:06;;;;;;;5.85;3.28;;;8.20;99.90;;;;;;5012389;28;20196;-75
2023/05/03 01:42:36;;;;;;;5.85;2.90;;;8.10;99.90;;;;;;5030945;28;20197;-76
2023/05/03 01:45:04;;;;;;;4.88;2.92;;;8.10;99.90;;;;;;5032052;28;20599;-75
2023/05/03 01:47:30;;;;;;;4.68;3.03;;;8.10;99.90;;;;;;5034613;28;20177;-75
2023/05/03 01:49:55;;;;;;;7.13;3.83;;;8.10;99.90;;;;;;5016768;28;20228;-76
2023/05/03 01:52:22;;;;;;;5.37;3.00;;;8.00;99.90;;;;;;5017048;28;20208;-76
2023/05/03 01:54:48;;;;;;;4.25;2.85;;;8.00;99.90;;;;;;5033042;28;20177;-76
2023/05/03 01:57:14;;;;;;;4.40;3.30;;;8.00;99.90;;;;;;5033441;28;20249;-76
2023/05/03 01:59:40;;;;;;;3.33;2.97;;;8.00;99.90;;;;;;5017213;28;20193;-76
2023/05/03 02:02:06;;;;;;;3.70;2.53;;;7.90;99.90;;;;;;5032905;28;20716;-75
2023/05/03 02:04:32;;;;;;;4.03;3.37;;;7.90;99.90;;;;;;5033486;28;20169;-75
2023/05/03 02:06:58;;;;;;;5.37;2.83;;;7.90;99.90;;;;;;5032661;28;20581;-74
2023/05/03 02:09:24;;;;;;;4.70;3.30;;;7.90;99.90;;;;;;5033459;28;20219;-75
2023/05/03 02:11:50;;;;;;;3.47;2.83;;;7.90;99.90;;;;;;4999824;28;20189;-74
2023/05/03 02:14:16;;;;;;;4.30;2.97;;;7.80;99.90;;;;;;5016771;28;20181;-75
2023/05/03 02:16:42;;;;;;;5.80;3.00;;;7.80;99.90;;;;;;5032549;28;20580;-75
2023/05/03 02:19:08;;;;;;;5.70;3.87;;;7.80;99.90;;;;;;5016345;28;20254;-75
2023/05/03 02:21:34;;;;;;;5.35;3.10;;;7.80;99.90;;;;;;5028474;28;21090;-74
2023/05/03 02:24:00;;;;;;;4.70;3.15;;;7.70;99.90;;;;;;5015863;28;20170;-74
2023/05/03 02:26:26;;;;;;;4.15;3.75;;;7.70;99.90;;;;;;5032729;28;20186;-74
2023/05/03 02:28:52;;;;;;;3.60;2.50;;;7.70;99.90;;;;;;5032588;28;20201;-74
2023/05/03 02:31:18;;;;;;;6.70;2.60;;;7.60;99.90;;;;;;5032826;28;20204;-75
2023/05/03 02:33:44;;;;;;;3.17;2.47;;;7.60;99.90;;;;;;5015892;28;20177;-75
2023/05/03 02:36:10;;;;;;;4.80;3.00;;;7.60;99.90;;;;;;5032655;28;20639;-75
2023/05/03 02:38:36;;;;;;;4.50;2.53;;;7.60;99.90;;;;;;5033981;28;20983;-75
2023/05/03 02:41:01;;;;;;;5.43;3.47;;;7.50;99.90;;;;;;5015540;28;20634;-75
2023/05/03 02:43:29;;;;;;;4.72;3.25;;;7.50;99.90;;;;;;5016243;28;20986;-75
2023/05/03 02:45:56;;;;;;;4.90;3.85;;;7.50;99.90;;;;;;5031835;28;20514;-75
2023/05/03 02:48:23;;;;;;;3.72;2.47;;;7.50;99.90;;;;;;5016250;28;20177;-75
2023/05/03 02:50:49;;;;;;;4.03;2.53;;;7.50;99.90;;;;;;5015346;28;20177;-75
2023/05/03 02:53:15;;;;;;;4.30;2.50;;;7.50;99.90;;;;;;5032488;28;20192;-75
2023/05/03 02:55:41;;;;;;;3.97;2.70;;;7.50;99.90;;;;;;5014800;28;20261;-75
2023/05/03 02:58:06;;;;;;;4.83;2.83;;;7.50;99.90;;;;;;5033873;28;20166;-75
2023/05/03 03:00:32;;;;;;;4.00;2.47;;;7.40;99.90;;;;;;5032321;28;20642;-75
2023/05/03 03:02:58;;;;;;;4.13;2.72;;;7.40;99.90;;;;;;5032891;28;20522;-75
2023/05/03 03:05:24;;;;;;;4.93;3.37;;;7.40;99.90;;;;;;5015770;28;20170;-75
2023/05/03 03:07:50;;;;;;;4.72;3.40;;;7.40;99.90;;;;;;5031558;28;20580;-76
2023/05/03 03:10:16;;;;;;;4.53;2.80;;;7.40;99.90;;;;;;5015890;28;20208;-75
2023/05/03 03:12:42;;;;;;;4.50;3.33;;;7.40;99.90;;;;;;5031647;28;20170;-76
2023/05/03 03:15:13;;;;;;;3.95;3.15;;;7.40;99.90;;;;;;5015471;28;20580;-76
2023/05/03 03:17:39;;;;;;;3.10;2.67;;;7.40;99.90;;;;;;5031628;28;20186;-76
2023/05/03 03:20:10;;;;;;;4.75;3.17;;;7.40;99.90;;;;;;5031374;28;20972;-76
2023/05/03 03:22:42;;;;;;;4.10;3.22;;;7.30;99.90;;;;;;5031498;28;20201;-76
2023/05/03 03:25:09;;;;;;;7.68;4.10;;;7.30;99.90;;;;;;5015088;28;20173;-76
2023/05/03 03:27:35;;;;;;;4.77;3.90;;;7.30;99.90;;;;;;5015140;28;20180;-76
2023/05/03 03:30:01;;;;;;;4.40;2.60;;;7.30;99.90;;;;;;5014849;28;20190;-76
2023/05/03 03:32:27;;;;;;;4.97;3.05;;;7.30;99.90;;;;;;5031558;28;20591;-76
2023/05/03 03:34:55;;;;;;;3.60;3.10;;;7.20;99.90;;;;;;4998601;28;20264;-76
2023/05/03 03:37:22;;;;;;;6.23;4.13;;;7.20;99.90;;;;;;5014982;28;20220;-76
2023/05/03 03:39:47;;;;;;;5.25;3.20;;;7.20;99.90;;;;;;5015067;28;20197;-76
2023/05/03 03:42:14;;;;;;;6.13;3.05;;;7.20;99.90;;;;;;5014428;28;20201;-75
2023/05/03 03:44:41;;;;;;;5.30;3.38;;;7.20;99.90;;;;;;5031442;28;20593;-75
2023/05/03 03:47:07;;;;;;;5.65;3.38;;;7.20;99.90;;;;;;5014221;28;20180;-75
2023/05/03 03:49:33;;;;;;;9.90;4.13;;;7.20;99.90;;;;;;5031426;28;20194;-75
2023/05/03 03:51:59;;;;;;;5.15;3.20;;;7.20;99.90;;;;;;4997684;28;21164;-75
2023/05/03 03:54:28;;;;;;;3.70;3.10;;;7.20;99.90;;;;;;5014789;28;20265;-75
2023/05/03 03:56:53;;;;;;;3.80;3.30;;;7.20;99.90;;;;;;5030548;28;20235;-76
2023/05/03 03:59:19;;;;;;;5.15;3.53;;;7.20;99.90;;;;;;5031285;28;20224;-76
2023/05/03 04:01:46;;;;;;;4.22;3.80;;;7.20;99.90;;;;;;5031011;28;20255;-75
2023/05/03 04:04:12;;;;;;;4.05;3.58;;;7.20;99.90;;;;;;4997985;28;20170;-75
2023/05/03 04:06:38;;;;;;;5.78;3.83;;;7.20;99.90;;;;;;5030557;28;20185;-75
2023/05/03 04:09:08;;;;;;;8.05;4.47;;;7.20;99.90;;;;;;5013650;28;20255;-75
2023/05/03 04:11:34;;;;;;;4.63;3.20;;;7.20;99.90;;;;;;5014518;28;20184;-75
2023/05/03 04:14:02;;;;;;;5.45;3.53;;;7.20;99.90;;;;;;5030050;28;20196;-75
2023/05/03 04:16:29;;;;;;;3.55;3.05;;;7.20;99.90;;;;;;5022424;28;20181;-75
2023/05/03 04:18:56;;;;;;;8.55;4.22;;;7.20;99.90;;;;;;5030332;28;20216;-75
2023/05/03 04:21:22;;;;;;;5.03;3.37;;;7.10;99.90;;;;;;4994597;28;20198;-76
2023/05/03 04:23:49;;;;;;;6.75;3.72;;;7.20;99.90;;;;;;5014229;28;20177;-76
2023/05/03 04:26:17;;;;;;;4.60;3.33;;;7.10;99.90;;;;;;5013507;28;20240;-76
2023/05/03 04:28:44;;;;;;;4.10;3.40;;;7.20;99.90;;;;;;5013995;28;20666;-76
2023/05/03 04:31:10;;;;;;;4.28;3.88;;;7.20;99.90;;;;;;4997242;28;20587;-75
2023/05/03 04:33:36;;;;;;;4.65;3.10;;;7.20;99.90;;;;;;5014121;28;20178;-76
2023/05/03 04:36:05;;;;;;;7.78;3.40;;;7.30;99.90;;;;;;5031050;28;20184;-75
2023/05/03 04:38:33;;;;;;;7.07;3.72;;;7.30;99.90;;;;;;5013520;28;20230;-75
2023/05/03 04:41:01;;;;;;;6.75;3.25;;;7.30;99.90;;;;;;5013700;28;20217;-76
2023/05/03 04:43:28;;;;;;;5.30;3.25;;;7.30;99.90;;;;;;5030092;28;20169;-76
2023/05/03 04:45:54;;;;;;;3.90;3.47;;;7.40;99.90;;;;;;5029998;28;20165;-76
2023/05/03 04:48:23;;;;;;;7.15;4.32;;;7.40;99.90;;;;;;5029955;28;20614;-75
2023/05/03 04:50:48;;;;;;;7.23;3.70;;;7.40;99.90;;;;;;5013852;28;20224;-75
2023/05/03 04:53:17;;;;;;;7.00;3.70;;;7.50;99.90;;;;;;5013051;28;20581;-75
2023/05/03 04:55:47;;;;;;;7.05;4.00;;;7.50;99.90;;;;;;5029992;28;20555;-75
2023/05/03 04:58:13;;;;;;;5.45;3.80;;;7.60;99.90;;;;;;5029589;28;20248;-76
2023/05/03 05:00:41;;;;;;;5.80;4.00;;;7.60;99.90;;;;;;5029983;28;20279;-75
2023/05/03 05:03:13;;;;;;;6.15;3.53;;;7.70;99.90;;;;;;5029920;28;20546;-75
2023/05/03 05:05:39;;;;;;;8.67;4.70;;;7.80;99.90;;;;;;5029407;28;20170;-74
2023/05/03 05:08:07;;;;;;;5.40;3.03;;;7.80;99.90;;;;;;5029870;28;20261;-74
2023/05/03 05:10:42;;;;;;;6.20;4.72;;;7.90;99.90;;;;;;5012707;28;20275;-76
2023/05/03 05:13:09;;;;;;;4.88;3.55;;;8.00;99.90;;;;;;5029400;28;20205;-76
2023/05/03 05:15:36;;;;;;;4.78;3.33;;;8.10;99.90;;;;;;5029176;28;20231;-76
2023/05/03 05:18:02;;;;;;;8.65;4.53;;;8.10;99.90;;;;;;5030741;28;20177;-75
2023/05/03 05:20:28;;;;;;;6.15;3.50;;;8.20;99.90;;;;;;5012023;28;20209;-75
2023/05/03 05:22:55;;;;;;;4.68;3.80;;;8.30;99.90;;;;;;5029766;28;20169;-75
2023/05/03 05:25:21;;;;;;;4.53;3.92;;;8.40;99.90;;;;;;5029977;28;20177;-76
2023/05/03 05:27:46;;;;;;;5.30;4.07;;;8.50;99.90;;;;;;5030324;28;20261;-76
2023/05/03 05:30:12;;;;;;;8.60;4.27;;;8.60;99.90;;;;;;5013252;28;20213;-76
2023/05/03 05:32:40;;;;;;;7.60;4.70;;;8.70;99.90;;;;;;5012916;28;20257;-76
2023/05/03 05:35:09;;;;;;;7.13;5.15;;;8.80;99.90;;;;;;5013405;28;20729;-76
2023/05/03 05:37:36;;;;;;;10.85;5.90;;;8.90;99.90;;;;;;5011587;28;20599;-76
2023/05/03 05:40:06;;;;;;;12.38;6.35;;;9.00;99.90;;;;;;5029011;28;20200;-77
2023/05/03 05:42:37;;;;;;;8.45;5.63;;;9.10;99.90;;;;;;5012832;28;20193;-76
2023/05/03 05:45:03;;;;;;;8.20;5.40;;;9.20;99.90;;;;;;5029724;28;20173;-76
2023/05/03 05:47:29;;;;;;;12.70;7.97;;;9.30;99.90;;;;;;5029601;28;20170;-77
2023/05/03 05:49:57;;;;;;;9.40;5.78;;;9.40;99.90;;;;;;5029129;28;20189;-77
2023/05/03 05:52:23;;;;;;;13.50;6.53;;;9.70;99.90;;;;;;5030702;28;20166;-76
2023/05/03 05:54:48;;;;;;;13.80;5.90;;;10.20;99.90;;;;;;4996513;28;20181;-76
2023/05/03 05:57:14;;;;;;;7.10;5.20;;;10.80;99.90;;;;;;5012874;28;20641;-76
2023/05/03 05:59:40;;;;;;;7.55;4.75;;;11.40;99.90;;;;;;4996493;28;20608;-75
2023/05/03 06:02:15;;;;;;;9.20;5.77;;;11.70;99.90;;;;;;5012768;28;20197;-74
2023/05/03 06:04:43;;;;;;;7.82;6.15;;;11.80;99.90;;;;;;5012241;28;20679;-75
2023/05/03 06:07:09;;;;;;;9.65;5.82;;;11.90;99.90;;;;;;5028911;28;20247;-74
2023/05/03 06:09:34;;;;;;;7.13;5.00;;;12.00;99.90;;;;;;5029333;28;20689;-75
2023/05/03 06:12:02;;;;;;;9.00;5.07;;;12.20;99.90;;;;;;4995995;28;20184;-75
2023/05/03 06:14:30;;;;;;;6.00;5.13;;;12.90;99.90;;;;;;5012574;28;20178;-75
2023/05/03 06:16:57;;;;;;;6.10;5.20;;;13.80;99.90;;;;;;5012350;28;20180;-76
2023/05/03 06:19:23;;;;;;;9.27;3.40;;;14.80;99.90;;;;;;5029161;28;20634;-75
2023/05/03 06:21:49;;;;;;;4.10;3.00;;;15.90;99.90;;;;;;5011836;28;21196;-75
2023/05/03 06:24:19;;;;;;;7.13;3.90;;;16.90;99.90;;;;;;5029309;28;20584;-75
2023/05/03 06:26:47;;;;;;;9.30;3.57;;;17.90;99.90;;;;;;5012000;28;20569;-75
2023/05/03 06:29:13;;;;;;;3.90;2.50;;;18.70;99.90;;;;;;5012776;28;20608;-75
2023/05/03 06:31:42;;;;;;;4.90;3.13;;;19.80;99.90;;;;;;5015186;28;20572;-75
2023/05/03 06:34:09;;;;;;;5.17;2.83;;;20.80;99.90;;;;;;5032540;28;20655;-76
2023/05/03 06:36:37;;;;;;;3.60;2.90;;;21.80;99.90;;;;;;5017125;28;20968;-76
2023/05/03 06:39:03;;;;;;;6.70;3.00;;;22.70;99.90;;;;;;5015794;28;20596;-77
2023/05/03 06:41:31;;;;;;;5.50;2.20;;;23.60;99.90;;;;;;5032556;28;20201;-76
2023/05/03 06:43:58;;;;;;;3.60;2.40;;;24.40;99.90;;;;;;5015918;28;20595;-77
2023/05/03 06:46:24;;;;;;;4.07;2.00;;;25.10;98.60;;;;;;5032380;28;20576;-75
2023/05/03 06:48:54;;;;;;;3.33;2.23;;;25.60;97.80;;;;;;5015719;28;20194;-75
2023/05/03 06:51:26;;;;;;;3.47;1.60;;;26.10;95.70;;;;;;4999683;28;20569;-76
2023/05/03 06:53:55;;;;;;;3.80;2.00;;;26.60;95.30;;;;;;5033550;28;21100;-77
2023/05/03 06:56:22;;;;;;;3.23;1.73;;;27.10;93.20;;;;;;5032063;28;20959;-77
2023/05/03 06:58:48;;;;;;;4.40;1.80;;;27.70;90.90;;;;;;5032436;28;20596;-77
2023/05/03 07:01:14;;;;;;;1.83;1.43;;;28.00;90.50;;;;;;5031816;28;20637;-77
2023/05/03 07:03:42;;;;;;;3.53;1.60;;;28.40;89.20;;;;;;5033331;28;20630;-77
2023/05/03 07:06:11;;;;;;;3.20;1.40;;;28.70;85.60;;;;;;5032960;28;21005;-76
2023/05/03 07:08:37;;;;;;;3.30;1.97;;;29.00;83.70;;;;;;5032105;28;20580;-76
2023/05/03 07:11:03;;;;;;;3.03;2.00;;;29.20;77.60;;;;;;5015388;28;21158;-75
2023/05/03 07:13:29;;;;;;;2.10;1.53;;;29.10;72.70;;;;;;5015550;28;20177;-76
2023/05/03 07:15:55;;;;;;;2.90;1.73;;;28.80;69.70;;;;;;5015196;28;20183;-76
2023/05/03 07:18:22;;;;;;;2.60;1.60;;;28.80;69.20;;;;;;5031553;28;20681;-77
2023/05/03 07:20:47;;;;;;;2.77;1.50;;;28.90;68.30;;;;;;5033263;28;21317;-77
2023/05/03 07:23:14;;;;;;;2.47;1.53;;;29.10;66.40;;;;;;5031468;28;20292;-77
2023/05/03 07:25:44;;;;;;;3.10;2.40;;;29.20;64.50;;;;;;5031726;28;20906;-77
2023/05/03 07:28:10;;;;;;;3.30;1.50;;;29.30;56.90;;;;;;5031453;28;20595;-78
2023/05/03 07:30:36;;;;;;;4.87;2.07;;;29.50;61.10;;;;;;5031759;28;20768;-78
2023/05/03 07:33:02;;;;;;;4.33;1.97;;;29.80;58.40;;;;;;5031398;28;20634;-77
2023/05/03 07:35:31;;;;;;;2.97;1.37;;;29.80;59.40;;;;;;5015581;28;20264;-77
2023/05/03 07:37:57;;;;;;;2.20;1.20;;;30.00;57.70;;;;;;5032511;28;20181;-77
2023/05/03 07:40:23;;;;;;;3.23;1.50;;;30.00;58.40;;;;;;5031205;28;20620;-77
2023/05/03 07:42:49;;;;;;;2.40;1.30;;;30.30;58.10;;;;;;5032865;28;20566;-77
2023/05/03 07:45:19;;;;;;;2.53;1.30;;;30.50;57.60;;;;;;5032630;28;20570;-77
2023/05/03 07:47:52;;;;;;;2.47;1.50;;;30.70;56.90;;;;;;5015635;28;20172;-77
2023/05/03 07:50:17;;;;;;;5.23;1.70;;;30.90;56.60;;;;;;5031936;28;20967;-77
2023/05/03 07:52:43;;;;;;;2.80;1.43;;;30.80;51.60;;;;;;5031685;28;20582;-76
2023/05/03 07:55:09;;;;;;;3.13;1.30;;;30.80;53.50;;;;;;5030934;28;20173;-75
2023/05/03 07:57:36;;;;;;;1.90;1.33;;;30.90;53.10;;;;;;5032874;28;20174;-76
2023/05/03 08:00:04;;;;;;;2.37;1.60;;;31.00;52.90;;;;;;5031088;28;20657;-76
2023/05/03 08:02:38;;;;;;;3.40;1.30;;;31.20;52.20;;;;;;5011626;28;20219;-77
2023/05/03 08:05:05;;;;;;;4.17;2.10;;;31.40;52.00;;;;;;5013024;28;20991;-77
2023/05/03 08:07:31;;;;;;;2.23;1.20;;;31.50;51.10;;;;;;5027749;28;20926;-77
2023/05/03 08:10:01;;;;;;;3.43;1.40;;;31.60;50.90;;;;;;5011370;28;20618;-77
2023/05/03 08:12:27;;;;;;;2.73;1.60;;;31.20;48.70;;;;;;5010873;28;20641;-76
2023/05/03 08:14:54;;;;;;;3.10;1.40;;;31.00;48.60;;;;;;5021554;28;20610;-77
2023/05/03 08:17:20;;;;;;;3.47;1.90;;;31.00;47.70;;;;;;5013867;28;20607;-76
2023/05/03 08:19:46;;;;;;;2.40;1.33;;;30.60;46.30;;;;;;5032016;28;21046;-76
2023/05/03 08:22:12;;;;;;;4.50;1.63;;;30.30;45.40;;;;;;5031944;28;20655;-77
2023/05/03 08:24:38;;;;;;;3.20;1.67;;;30.00;46.10;;;;;;5043294;28;20246;-76
2023/05/03 08:27:05;;;;;;;3.50;1.43;;;30.10;46.40;;;;;;5051164;28;20207;-77
2023/05/03 08:29:31;;;;;;;3.10;1.43;;;30.20;45.30;;;;;;5050014;28;20630;-77
2023/05/03 08:31:57;;;;;;;1.80;1.00;;;30.10;44.70;;;;;;5021693;28;20598;-77
2023/05/03 08:34:24;;;;;;;4.60;1.73;;;30.20;46.20;;;;;;5030309;28;20585;-77
2023/05/03 08:36:50;;;;;;;2.47;1.73;;;30.40;45.50;;;;;;5030537;28;20597;-77
2023/05/03 08:39:17;;;;;;;2.90;1.30;;;30.60;46.20;;;;;;5031489;28;20622;-77
2023/05/03 08:41:43;;;;;;;3.30;1.57;;;31.00;46.80;;;;;;5030228;28;20637;-77
2023/05/03 08:44:20;;;;;;;2.97;1.37;;;31.30;45.90;;;;;;5030669;28;20608;-78
2023/05/03 08:46:45;;;;;;;1.80;1.10;;;31.50;45.10;;;;;;5013613;28;20636;-77
2023/05/03 08:49:12;;;;;;;4.70;1.37;;;31.70;44.70;;;;;;5030489;28;20613;-77
2023/05/03 08:51:41;;;;;;;3.30;1.43;;;31.80;42.60;;;;;;5029543;28;20195;-77
2023/05/03 08:54:07;;;;;;;3.90;1.50;;;31.70;42.20;;;;;;5029984;28;20726;-78
2023/05/03 08:56:42;;;;;;;2.43;1.60;;;31.70;41.40;;;;;;5036525;28;20616;-78
2023/05/03 08:59:10;;;;;;;1.97;1.20;;;31.70;37.40;;;;;;5029855;28;20736;-78
2023/05/03 09:01:37;;;;;;;3.93;1.10;;;31.70;41.30;;;;;;4997128;28;20694;-77
2023/05/03 09:04:04;;;;;;;3.43;1.50;;;31.80;41.90;;;;;;5013224;28;20589;-78
2023/05/03 09:06:31;;;;;;;2.60;1.27;;;31.70;40.60;;;;;;5029722;28;20593;-76
2023/05/03 09:08:58;;;;;;;2.50;1.27;;;31.60;39.60;;;;;;4996843;28;20903;-78
2023/05/03 09:11:30;;;;;;;2.50;1.27;;;31.70;40.50;;;;;;5029565;28;21246;-76
2023/05/03 09:14:17;;;;;;;4.43;1.23;;;31.90;39.40;;;;;;5012596;28;20578;-77
2023/05/03 09:16:45;;;;;;;3.30;1.20;;;31.90;40.50;;;;;;5026365;28;20618;-76
2023/05/03 09:19:12;;;;;;;2.37;1.43;;;31.50;38.60;;;;;;4993032;28;20788;-77
2023/05/03 09:21:39;;;;;;;4.67;1.40;;;31.20;38.70;;;;;;5019926;28;20593;-77
2023/05/03 09:24:18;;;;;;;3.93;1.60;;;31.20;39.70;;;;;;5029947;28;20620;-77
2023/05/03 09:26:45;;;;;;;3.43;1.20;;;31.50;39.30;;;;;;5012674;28;20601;-76
2023/05/03 09:29:34;;;;;;;3.77;2.23;;;31.50;36.60;;;;;;5013286;28;20623;-77
2023/05/03 09:32:05;;;;;;;3.30;1.30;;;31.00;37.30;;;;;;5029144;28;20642;-77
2023/05/03 09:34:31;;;;;;;4.10;1.70;;;30.80;38.20;;;;;;4996961;28;20585;-75
2023/05/03 09:36:57;;;;;;;2.23;1.10;;;30.90;38.30;;;;;;5028952;28;20577;-76
2023/05/03 09:39:23;;;;;;;3.00;1.90;;;31.00;38.70;;;;;;5031855;28;20636;-75
2023/05/03 09:41:49;;;;;;;3.00;1.40;;;31.10;38.20;;;;;;5040576;28;20174;-76
2023/05/03 09:44:16;;;;;;;2.10;1.53;;;31.10;37.60;;;;;;5032820;28;20520;-76
2023/05/03 09:47:04;;;;;;;3.00;1.67;;;31.20;37.80;;;;;;5048684;28;21167;-76
2023/05/03 09:49:35;;;;;;;2.90;1.43;;;31.40;37.00;;;;;;5045905;28;21060;-76
2023/05/03 09:52:02;;;;;;;2.23;1.30;;;31.20;38.20;;;;;;5029130;28;20648;-76
2023/05/03 09:54:33;;;;;;;3.53;1.30;;;31.30;37.90;;;;;;5028781;28;20587;-76
2023/05/03 09:57:00;;;;;;;3.40;1.20;;;31.50;38.10;;;;;;5030641;28;20969;-76
2023/05/03 09:59:27;;;;;;;2.63;1.20;;;31.50;38.10;;;;;;5028719;28;20670;-76
2023/05/03 10:01:58;;;;;;;3.80;1.40;;;31.50;37.10;;;;;;5029333;28;20576;-76
2023/05/03 10:04:27;;;;;;;2.50;1.10;;;31.30;32.70;;;;;;5028757;28;20591;-76
2023/05/03 10:06:58;;;;;;;3.20;1.53;;;31.00;35.50;;;;;;5033616;28;20983;-76
2023/05/03 10:09:30;;;;;;;2.17;1.07;;;30.80;35.50;;;;;;5033041;28;20632;-77
2023/05/03 10:12:00;;;;;;;6.90;1.43;;;30.50;35.90;;;;;;5033140;28;21032;-76
2023/05/03 10:14:27;;;;;;;2.13;1.23;;;30.50;35.10;;;;;;5016478;28;20565;-76
2023/05/03 10:17:07;;;;;;;3.93;1.40;;;30.60;36.90;;;;;;5030816;28;20582;-76
2023/05/03 10:19:39;;;;;;;2.23;1.13;;;30.60;36.10;;;;;;5032942;28;20628;-76
2023/05/03 10:22:07;;;;;;;2.33;1.10;;;30.80;37.10;;;;;;5033533;28;20659;-76
2023/05/03 10:24:34;;;;;;;2.13;1.23;;;30.90;36.90;;;;;;5033145;28;20620;-76
2023/05/03 10:27:00;;;;;;;4.30;1.40;;;30.80;35.50;;;;;;5015896;28;20591;-76
2023/05/03 10:29:46;;;;;;;3.43;1.80;;;30.40;34.30;;;;;;5032836;28;20620;-76
2023/05/03 10:32:42;;;;;;;3.17;1.50;;;29.90;33.80;;;;;;5032313;28;20726;-76
2023/05/03 10:35:12;;;;;;;2.70;1.27;;;29.80;35.50;;;;;;5013302;28;20579;-76
2023/05/03 10:37:40;;;;;;;1.77;1.10;;;29.80;36.10;;;;;;5025902;28;20628;-76
2023/05/03 10:40:10;;;;;;;1.97;1.10;;;30.00;36.60;;;;;;5033948;28;20707;-75
2023/05/03 10:42:37;;;;;;;3.17;1.90;;;30.00;36.20;;;;;;5014459;28;20612;-75
2023/05/03 10:45:03;;;;;;;1.77;0.90;;;29.90;35.40;;;;;;5014465;28;20599;-77
2023/05/03 10:47:29;;;;;;;2.17;1.10;;;29.60;35.70;;;;;;5019554;28;20603;-77
2023/05/03 10:50:10;;;;;;;2.93;1.30;;;29.50;35.90;;;;;;5031898;28;20631;-76
2023/05/03 10:52:39;;;;;;;3.67;1.37;;;29.40;35.90;;;;;;5032586;28;20990;-75
2023/05/03 10:55:13;;;;;;;2.83;1.20;;;29.50;36.60;;;;;;5033090;28;20567;-76
2023/05/03 10:57:41;;;;;;;2.00;0.97;;;29.50;36.60;;;;;;5032105;28;20600;-75
2023/05/03 11:00:12;;;;;;;2.87;1.50;;;29.50;36.70;;;;;;5032221;28;20632;-75
2023/05/03 11:03:20;;;;;;;2.70;1.20;;;29.20;35.30;;;;;;5032385;28;20587;-76
2023/05/03 11:05:50;;;;;;;2.87;2.30;;;29.00;35.40;;;;;;5031568;28;20579;-75
2023/05/03 11:08:21;;;;;;;2.93;1.53;;;28.70;35.00;;;;;;5032304;28;20576;-76
2023/05/03 11:10:50;;;;;;;2.40;1.43;;;28.20;34.70;;;;;;5033490;28;20580;-75
2023/05/03 11:13:16;;;;;;;1.97;1.20;;;27.60;34.40;;;;;;5015042;28;20599;-76
2023/05/03 11:15:42;;;;;;;2.50;1.20;;;27.30;35.60;;;;;;5032104;28;20578;-75
2023/05/03 11:18:10;;;;;;;2.63;1.20;;;27.10;35.10;;;;;;5027968;28;20603;-76
2023/05/03 11:20:37;;;;;;;2.87;1.23;;;27.00;36.50;;;;;;5014839;28;20719;-76
2023/05/03 11:23:04;;;;;;;3.47;1.50;;;27.20;37.10;;;;;;5031201;28;20596;-76
2023/05/03 11:25:32;;;;;;;4.70;2.23;;;27.40;37.30;;;;;;5032195;28;20583;-76
2023/05/03 11:28:00;;;;;;;3.13;1.40;;;27.50;36.90;;;;;;5033071;28;20611;-76
2023/05/03 11:30:28;;;;;;;3.20;1.27;;;27.60;36.90;;;;;;5014807;28;20604;-76
2023/05/03 11:32:54;;;;;;;2.40;1.20;;;27.70;36.90;;;;;;5031818;28;20670;-76
2023/05/03 11:35:24;;;;;;;4.97;1.00;;;27.80;36.60;;;;;;5032662;28;20581;-77
2023/05/03 11:37:50;;;;;;;2.83;1.30;;;27.80;36.70;;;;;;5031542;28;20591;-77
2023/05/03 11:40:16;;;;;;;4.07;1.23;;;27.80;36.70;;;;;;5014733;28;20608;-76
2023/05/03 11:42:57;;;;;;;2.10;0.97;;;27.70;36.70;;;;;;5033005;28;20172;-77
2023/05/03 11:45:25;;;;;;;4.77;1.67;;;27.70;36.50;;;;;;5020986;28;21290;-76
2023/05/03 11:47:51;;;;;;;2.73;1.37;;;27.50;34.60;;;;;;5032734;28;20890;-76
2023/05/03 11:50:25;;;;;;;4.83;1.60;;;27.40;36.00;;;;;;5031578;28;20671;-75
2023/05/03 11:52:51;;;;;;;2.50;1.30;;;27.10;36.30;;;;;;4998742;28;20632;-75
2023/05/03 11:55:17;;;;;;;2.53;1.30;;;26.90;35.50;;;;;;5032469;28;21135;-75
2023/05/03 11:57:44;;;;;;;2.77;1.20;;;26.70;36.00;;;;;;5030674;28;20581;-76
2023/05/03 12:00:15;;;;;;;2.63;1.97;;;26.60;36.10;;;;;;5032723;28;20201;-75
2023/05/03 12:02:43;;;;;;;2.43;1.30;;;26.20;35.00;;;;;;5014385;28;20580;-75
2023/05/03 12:05:09;;;;;;;2.03;1.20;;;25.90;35.80;;;;;;5032835;28;20622;-75
2023/05/03 12:07:37;;;;;;;2.53;1.10;;;25.80;36.20;;;;;;5030557;28;20667;-75
2023/05/03 12:10:19;;;;;;;2.40;1.63;;;25.70;36.70;;;;;;5029081;28;20638;-76
2023/05/03 12:12:56;;;;;;;2.70;1.33;;;25.50;36.30;;;;;;4995012;28;20727;-76
2023/05/03 12:15:35;;;;;;;1.80;0.83;;;25.40;36.40;;;;;;5027262;28;20588;-76
2023/05/03 12:18:10;;;;;;;3.77;1.70;;;25.30;36.10;;;;;;5028003;28;21198;-76
2023/05/03 12:20:37;;;;;;;2.80;1.30;;;24.90;35.10;;;;;;5026779;28;21037;-76
2023/05/03 12:23:06;;;;;;;2.57;1.00;;;24.60;35.60;;;;;;5008824;28;20580;-76
2023/05/03 12:25:34;;;;;;;4.70;1.30;;;24.20;35.90;;;;;;4997540;28;20757;-75
2023/05/03 12:28:03;;;;;;;2.13;1.20;;;24.00;36.40;;;;;;5013926;28;20626;-75
2023/05/03 12:30:29;;;;;;;2.90;1.23;;;24.00;36.90;;;;;;5013645;28;20620;-75
2023/05/03 12:32:55;;;;;;;3.53;1.30;;;23.90;36.30;;;;;;5030653;28;20624;-75
2023/05/03 12:35:22;;;;;;;2.20;1.10;;;23.80;37.00;;;;;;5014055;28;20654;-75
2023/05/03 12:37:49;;;;;;;3.00;1.10;;;23.90;37.20;;;;;;5029940;28;20615;-75
2023/05/03 12:40:15;;;;;;;4.07;1.30;;;23.90;38.20;;;;;;5031854;28;20627;-75
2023/05/03 12:42:42;;;;;;;4.37;2.30;;;23.90;37.30;;;;;;5030958;28;20592;-73
2023/05/03 12:45:08;;;;;;;2.80;1.03;;;23.70;36.90;;;;;;5014071;28;20607;-75
2023/05/03 12:47:37;;;;;;;3.57;1.30;;;23.40;36.20;;;;;;5029824;28;20919;-75
2023/05/03 12:50:04;;;;;;;2.90;1.50;;;23.10;36.30;;;;;;5030417;28;20604;-74
2023/05/03 12:52:30;;;;;;;2.00;1.20;;;22.80;35.60;;;;;;5029698;28;21105;-75
2023/05/03 12:54:57;;;;;;;2.73;1.30;;;22.50;35.80;;;;;;5030483;28;20929;-75